Terminal Aerodrome Forecast
Issued by NWS Charleston, WV

Current Version | Previous Version | Graphics & Text | Print | Product List | Glossary On
Versions: 1 2 3 4 5 6 7 8 9 10 11 12 13 14 15 16 17 18 19 20 21 22 23
000
FTUS41 KRLX 290821 AAA
TAFCRW
TAF AMD
KCRW 290821Z 2908/3006 00000KT 6SM BR SCT150
      TEMPO 2909/2911 5SM BR
     FM291200 00000KT P6SM SCT140
     FM291500 21005KT P6SM BKN110
     FM300500 00000KT 6SM SHRA BR BKN040=

USA.gov is the U.S. government's official web portal to all federal, state and local government web resources and services.